KGZL

Stigler Regional Airport

Stigler, Oklahoma, USA
METAR KGZL 280055Z AUTO 13003KT 10SM CLR 30/16 A2984 RMK AO2
Observed Flight Rules
May-28 @ 00:55 UTC (6 minutes ago) Visual Flight Rules
Wind Visibility Clouds
130° at 3 knots 10 miles
  • Clear skies
Temperatures Readings
Current 30°C / 86°F
Dewpoint 16°C / 61°F
Humidity 43%
Altimeter 29.84" Hg
Pressure 1010 hPa
Elevation 183
METAR KGZL 280055Z AUTO 13003KT 10SM CLR 30/16 A2984 RMK AO2
Observed Flight Rules
May-28 @ 00:55 UTC
(6 minutes ago)
VFR
Wind Visibility
130° at 3 knots 10 miles
Clouds
  • Clear skies
Temperature Dewpoint
30°C / 86°F 16°C / 61°F
Humidity Altimeter Pressure
43% 29.84" Hg 1010 hPa